Time;durP1;ratioP1;P1;durP2;ratioP2;P2;SDS_P1;SDS_P2;PMS_P1;PMS_P2;Temp;Humidity;BMP_temperature;BMP_pressure;BME280_temperature;BME280_humidity;BME280_pressure;Samples;Min_cycle;Max_cycle;Signal;HPM_P1;HPM_P2
2022/05/04 00:01:20;;;;;;;1.85;0.50;;;;;;;21.11;47.00;100554.22;5046986;28;20071;-51
2022/05/04 00:03:45;;;;;;;1.38;0.40;;;;;;;21.10;47.06;100555.25;5045097;28;20063;-52
2022/05/04 00:06:11;;;;;;;2.63;0.40;;;;;;;21.11;46.89;100551.59;5047833;28;20025;-51
2022/05/04 00:08:40;;;;;;;2.38;0.40;;;;;;;21.10;47.22;100549.97;5048404;28;20496;-54
2022/05/04 00:11:06;;;;;;;1.70;0.50;;;;;;;21.10;46.85;100549.97;5048410;28;20033;-45
2022/05/04 00:13:32;;;;;;;1.25;0.40;;;;;;;21.10;46.79;100550.78;5047207;28;21451;-50
2022/05/04 00:16:01;;;;;;;0.85;0.40;;;;;;;21.10;47.25;100548.13;5046591;28;20033;-51
2022/05/04 00:18:30;;;;;;;2.80;0.65;;;;;;;21.11;47.17;100551.59;5047771;28;20441;-46
2022/05/04 00:20:57;;;;;;;1.50;0.40;;;;;;;21.10;47.10;100547.31;5044308;28;20029;-50
2022/05/04 00:23:23;;;;;;;1.25;0.30;;;;;;;21.09;46.95;100548.34;5046215;28;20043;-49
2022/05/04 00:25:49;;;;;;;1.30;0.40;;;;;;;21.09;46.71;100549.16;5042565;28;20091;-52
2022/05/04 00:28:15;;;;;;;1.35;0.40;;;;;;;21.08;47.20;100542.22;5047933;28;20029;-48
2022/05/04 00:30:40;;;;;;;2.00;0.40;;;;;;;21.08;46.96;100549.34;5045919;28;20036;-47
2022/05/04 00:33:06;;;;;;;1.83;0.50;;;;;;;21.08;46.98;100549.34;5046961;28;20080;-51
2022/05/04 00:35:31;;;;;;;1.63;0.55;;;;;;;21.07;47.12;100551.19;5041181;28;20554;-51
2022/05/04 00:37:57;;;;;;;0.70;0.40;;;;;;;21.06;47.36;100541.63;5047120;28;20131;-52
2022/05/04 00:40:22;;;;;;;2.63;0.52;;;;;;;21.07;47.41;100550.38;5047697;28;20064;-48
2022/05/04 00:42:48;;;;;;;0.65;0.38;;;;;;;21.05;47.27;100553.22;5044088;28;20045;-50
2022/05/04 00:45:13;;;;;;;1.00;0.40;;;;;;;21.05;47.24;100541.81;5038950;28;20510;-51
2022/05/04 00:47:39;;;;;;;1.00;0.40;;;;;;;21.05;47.07;100549.78;5044819;28;20087;-50
2022/05/04 00:50:06;;;;;;;1.08;0.28;;;;;;;21.04;46.97;100546.31;5046200;28;20487;-51
2022/05/04 00:52:37;;;;;;;1.83;0.45;;;;;;;21.03;47.34;100549.16;5045820;28;20025;-51
2022/05/04 00:55:07;;;;;;;1.63;0.40;;;;;;;21.05;47.27;100552.41;5045210;28;20051;-49
2022/05/04 01:00:20;;;;;;;1.58;0.30;;;;;;;21.02;47.25;100552.84;5037611;28;20056;-50
2022/05/04 01:02:45;;;;;;;3.25;0.75;;;;;;;21.02;46.85;100552.84;5042900;28;20033;-48
2022/05/04 01:05:11;;;;;;;1.50;0.30;;;;;;;21.02;47.15;100551.00;5044997;28;20060;-48
2022/05/04 01:07:38;;;;;;;1.88;0.32;;;;;;;21.02;47.06;100560.78;5043629;28;20123;-51
2022/05/04 01:10:05;;;;;;;0.95;0.30;;;;;;;21.02;46.99;100566.91;5046076;28;20180;-49
2022/05/04 01:12:31;;;;;;;1.20;0.55;;;;;;;21.02;46.77;100558.13;5044707;28;20053;-51
2022/05/04 01:14:57;;;;;;;0.93;0.40;;;;;;;21.03;46.77;100571.19;5046681;28;20064;-51
2022/05/04 01:17:23;;;;;;;0.88;0.30;;;;;;;21.03;46.76;100567.72;5049318;28;20080;-49
2022/05/04 01:19:49;;;;;;;0.77;0.40;;;;;;;21.03;46.67;100571.19;5047202;28;20148;-51
2022/05/04 01:22:14;;;;;;;1.08;0.40;;;;;;;21.03;47.08;100570.38;5045522;28;20037;-52
2022/05/04 01:24:39;;;;;;;1.15;0.40;;;;;;;21.04;46.85;100575.44;5044217;28;20050;-50
2022/05/04 01:27:13;;;;;;;1.92;0.38;;;;;;;21.04;46.64;100572.00;5044184;28;20044;-50
2022/05/04 01:29:38;;;;;;;2.10;0.40;;;;;;;21.04;46.71;100572.81;5046214;28;20033;-51
2022/05/04 01:32:04;;;;;;;1.05;0.30;;;;;;;21.05;46.56;100573.63;5045878;28;20419;-50
2022/05/04 01:34:30;;;;;;;5.70;0.40;;;;;;;21.06;46.39;100575.25;5046174;28;20137;-50
2022/05/04 01:36:55;;;;;;;0.68;0.32;;;;;;;21.06;46.81;100575.25;5047999;28;20032;-51
2022/05/04 01:39:20;;;;;;;1.10;0.32;;;;;;;21.07;46.53;100566.28;5031571;28;20429;-52
2022/05/04 01:42:05;;;;;;;0.57;0.40;;;;;;;21.07;46.51;100568.91;5045892;28;20554;-45
2022/05/04 01:44:34;;;;;;;1.45;0.30;;;;;;;21.06;46.73;100570.75;5044668;28;20059;-48
2022/05/04 01:47:00;;;;;;;3.53;0.70;;;;;;;21.07;46.65;100577.69;5042990;28;20069;-47
2022/05/04 01:49:26;;;;;;;2.15;0.40;;;;;;;21.07;46.67;100560.97;5045947;28;20086;-49
2022/05/04 01:51:52;;;;;;;3.22;0.32;;;;;;;21.06;46.63;100562.00;5043972;28;20025;-50
2022/05/04 01:54:17;;;;;;;0.70;0.30;;;;;;;21.06;46.81;100559.34;5044564;28;20041;-47
2022/05/04 01:56:43;;;;;;;0.80;0.30;;;;;;;21.05;46.67;100558.53;5046187;28;20112;-50
2022/05/04 01:59:09;;;;;;;1.98;0.40;;;;;;;21.05;46.77;100563.84;5043827;28;20025;-46
2022/05/04 02:01:38;;;;;;;2.58;0.40;;;;;;;21.05;47.12;100560.38;5045301;28;20144;-44
2022/05/04 02:04:04;;;;;;;0.50;0.30;;;;;;;21.04;47.22;100561.38;5043971;28;20040;-52
2022/05/04 02:06:30;;;;;;;0.90;0.40;;;;;;;21.04;47.24;100566.69;5043221;28;20519;-47
2022/05/04 02:08:57;;;;;;;1.95;0.30;;;;;;;21.03;46.83;100555.28;5044858;28;20047;-50
2022/05/04 02:11:23;;;;;;;0.50;0.22;;;;;;;21.02;47.18;100564.25;5418533;22;20060;-51
2022/05/04 02:13:48;;;;;;;1.08;0.30;;;;;;;21.04;46.84;100569.34;5006388;22;20036;-51
2022/05/04 02:16:14;;;;;;;0.73;0.30;;;;;;;21.03;47.06;100571.19;5066740;28;20032;-49
2022/05/04 02:18:39;;;;;;;0.85;0.40;;;;;;;21.03;47.25;100571.19;5067070;28;20036;-46
2022/05/04 02:21:04;;;;;;;1.13;0.35;;;;;;;21.03;46.76;100567.72;5084106;28;20031;-51
2022/05/04 02:23:30;;;;;;;0.90;0.40;;;;;;;21.02;47.07;100566.91;5087238;28;20028;-46
2022/05/04 02:25:55;;;;;;;0.82;0.40;;;;;;;21.02;46.65;100569.53;5070123;28;20102;-46
2022/05/04 02:28:21;;;;;;;0.63;0.40;;;;;;;21.03;46.55;100567.72;5067153;28;20033;-45
2022/05/04 02:30:47;;;;;;;0.88;0.40;;;;;;;21.02;46.65;100563.44;5066846;28;20123;-48
2022/05/04 02:33:14;;;;;;;1.35;0.30;;;;;;;21.01;46.96;100562.63;5066657;28;20027;-49
2022/05/04 02:38:24;;;;;;;0.70;0.30;;;;;;;21.01;46.80;100572.41;5066720;28;20038;-47
2022/05/04 02:40:49;;;;;;;1.25;0.30;;;;;;;20.99;46.73;100572.63;5066420;28;20028;-52
2022/05/04 02:43:15;;;;;;;1.20;0.40;;;;;;;20.98;46.60;100572.81;5066750;28;20024;-49
2022/05/04 02:45:41;;;;;;;1.00;0.32;;;;;;;20.98;46.66;100567.53;5066359;28;20036;-49
2022/05/04 02:48:09;;;;;;;0.88;0.30;;;;;;;20.97;46.65;100565.91;5066578;28;20047;-48
2022/05/04 02:50:35;;;;;;;1.58;0.30;;;;;;;20.97;46.38;100577.31;5048118;28;20036;-48
2022/05/04 02:53:01;;;;;;;1.63;0.40;;;;;;;20.96;46.58;100573.03;5065995;28;20139;-48
2022/05/04 02:55:26;;;;;;;1.08;0.40;;;;;;;20.98;46.54;100572.81;5065992;28;20081;-46
2022/05/04 02:57:52;;;;;;;0.80;0.30;;;;;;;20.97;46.34;100572.00;5066187;28;20032;-50
2022/05/04 03:00:17;;;;;;;0.73;0.30;;;;;;;20.96;46.28;100574.88;5066293;28;20119;-46
2022/05/04 03:02:44;;;;;;;1.08;0.30;;;;;;;20.95;46.70;100578.53;5066197;28;20110;-48
2022/05/04 03:05:11;;;;;;;1.05;0.35;;;;;;;20.94;46.42;100575.06;5066216;28;20503;-52
2022/05/04 03:07:37;;;;;;;0.95;0.30;;;;;;;20.94;46.36;100577.72;5066404;28;20047;-49
2022/05/04 03:10:03;;;;;;;1.52;0.50;;;;;;;20.95;46.37;100581.19;5066149;28;20029;-50
2022/05/04 03:12:28;;;;;;;0.70;0.40;;;;;;;20.95;46.24;100579.34;5065907;28;20048;-51
2022/05/04 03:14:54;;;;;;;0.85;0.38;;;;;;;20.96;46.70;100588.09;5066271;28;20043;-48
2022/05/04 03:17:20;;;;;;;1.45;0.40;;;;;;;20.95;46.62;100583.84;5066170;28;20029;-45
2022/05/04 03:19:45;;;;;;;1.00;0.30;;;;;;;20.95;46.68;100586.47;5066078;28;20028;-50
2022/05/04 03:22:11;;;;;;;1.98;0.50;;;;;;;20.95;46.20;100589.13;5066011;28;20033;-53
2022/05/04 03:24:38;;;;;;;0.88;0.30;;;;;;;20.96;46.28;100582.81;5068935;28;20520;-47
2022/05/04 03:27:04;;;;;;;0.47;0.30;;;;;;;20.97;46.34;100581.78;5070038;28;20043;-49
2022/05/04 03:29:29;;;;;;;0.75;0.38;;;;;;;20.98;46.30;100594.81;5069995;28;20526;-50
2022/05/04 03:31:55;;;;;;;0.70;0.30;;;;;;;20.98;46.38;100594.81;5070201;28;20207;-51
2022/05/04 03:34:20;;;;;;;0.90;0.30;;;;;;;21.00;46.18;100591.97;5069959;28;20032;-48
2022/05/04 03:36:46;;;;;;;1.17;0.30;;;;;;;20.99;46.28;100587.69;5070013;28;20482;-49
2022/05/04 03:39:11;;;;;;;0.77;0.40;;;;;;;20.99;46.38;100585.84;5069895;28;20119;-48
2022/05/04 03:41:38;;;;;;;0.60;0.35;;;;;;;21.00;46.42;100594.63;5070220;28;20044;-49
2022/05/04 03:44:05;;;;;;;0.60;0.40;;;;;;;21.01;46.40;100590.94;5069970;28;20212;-49
2022/05/04 03:46:41;;;;;;;0.98;0.32;;;;;;;20.98;46.33;100597.47;5070116;28;20067;-48
2022/05/04 03:49:08;;;;;;;2.80;0.40;;;;;;;20.99;46.33;100595.63;5070244;28;20072;-48
2022/05/04 03:51:34;;;;;;;0.60;0.40;;;;;;;20.99;46.49;100590.34;5069681;28;20032;-52
2022/05/04 03:53:59;;;;;;;0.77;0.30;;;;;;;20.99;46.42;100595.63;5069625;28;20086;-48
2022/05/04 03:56:25;;;;;;;1.95;0.30;;;;;;;20.98;46.08;100599.31;5069785;28;20029;-50
2022/05/04 03:58:50;;;;;;;0.85;0.32;;;;;;;20.97;46.11;100602.97;5069762;28;20379;-52
2022/05/04 04:01:18;;;;;;;0.75;0.30;;;;;;;20.96;46.16;100604.81;5070074;28;20028;-51
2022/05/04 04:03:43;;;;;;;0.80;0.30;;;;;;;20.96;46.16;100599.53;5069720;28;20051;-51
2022/05/04 04:06:09;;;;;;;1.02;0.32;;;;;;;20.96;46.37;100601.34;5069458;28;20029;-49
2022/05/04 04:08:34;;;;;;;0.50;0.30;;;;;;;20.95;46.22;100605.84;5069577;28;20025;-51
2022/05/04 04:11:00;;;;;;;1.50;0.30;;;;;;;20.95;46.46;100610.31;5069709;28;20035;-48
2022/05/04 04:13:25;;;;;;;0.65;0.30;;;;;;;20.95;46.28;100612.97;5069399;28;20384;-47
2022/05/04 04:15:51;;;;;;;1.92;0.30;;;;;;;20.94;46.59;100619.28;5069492;28;20027;-48
2022/05/04 04:18:20;;;;;;;1.83;0.40;;;;;;;20.95;46.75;100618.25;5066630;28;20529;-53
2022/05/04 04:23:31;;;;;;;0.90;0.30;;;;;;;20.95;46.96;100616.44;5063270;28;20489;-49
2022/05/04 04:25:56;;;;;;;3.15;0.40;;;;;;;20.97;47.23;100624.16;5066115;28;20495;-53
2022/05/04 04:28:22;;;;;;;2.17;0.70;;;;;;;21.04;47.77;100622.31;5068434;28;20042;-54
2022/05/04 04:30:48;;;;;;;3.38;1.70;;;;;;;21.10;49.77;100624.13;5068585;28;20028;-55
2022/05/04 04:33:14;;;;;;;4.03;1.00;;;;;;;21.11;50.57;100626.56;5057897;28;20048;-50
2022/05/04 04:35:39;;;;;;;4.85;0.70;;;;;;;21.08;49.83;100626.19;5064719;28;20025;-52
2022/05/04 04:38:06;;;;;;;1.15;0.50;;;;;;;21.05;48.95;100629.25;5060406;28;20036;-53
2022/05/04 04:40:32;;;;;;;1.13;0.40;;;;;;;21.04;48.39;100635.56;5064645;28;20101;-53
2022/05/04 04:42:57;;;;;;;2.40;0.30;;;;;;;21.03;47.94;100636.59;5066239;28;20474;-53
2022/05/04 04:45:23;;;;;;;1.58;0.57;;;;;;;21.01;46.89;100628.03;5064537;28;20046;-56
2022/05/04 04:47:48;;;;;;;4.22;2.40;;;;;;;21.00;46.88;100632.50;5059982;28;20753;-57
2022/05/04 04:50:14;;;;;;;3.13;0.88;;;;;;;21.00;47.30;100640.47;5065597;28;20112;-54
2022/05/04 04:52:40;;;;;;;1.70;0.60;;;;;;;21.01;47.08;100642.09;5066588;28;20456;-54
2022/05/04 04:55:06;;;;;;;4.57;0.60;;;;;;;21.00;46.74;100637.81;5064209;28;20123;-55
2022/05/04 04:57:33;;;;;;;3.05;0.55;;;;;;;21.00;46.78;100640.47;5062586;28;20493;-56
2022/05/04 04:59:59;;;;;;;2.97;0.50;;;;;;;21.00;46.67;100648.41;5057841;28;20039;-54
2022/05/04 05:02:25;;;;;;;2.97;0.50;;;;;;;20.99;46.68;100643.31;5062167;28;20479;-57
2022/05/04 05:04:50;;;;;;;3.40;0.50;;;;;;;20.99;46.44;100643.31;5058698;28;20077;-55
2022/05/04 05:07:15;;;;;;;1.40;0.60;;;;;;;20.98;46.42;100646.97;5066444;28;20480;-54
2022/05/04 05:09:41;;;;;;;1.45;0.50;;;;;;;20.98;46.17;100652.28;5067561;28;20032;-55
2022/05/04 05:12:07;;;;;;;1.23;0.60;;;;;;;20.98;46.51;100657.56;5067114;28;20043;-53
2022/05/04 05:17:17;;;;;;;3.75;0.50;;;;;;;20.97;46.54;100655.94;5066559;28;20150;-55
2022/05/04 05:19:42;;;;;;;3.42;0.50;;;;;;;20.98;46.54;100652.28;5066579;28;20483;-56
2022/05/04 05:22:08;;;;;;;1.30;0.40;;;;;;;20.99;46.33;100659.22;5067574;28;20402;-55
2022/05/04 05:24:33;;;;;;;1.85;0.50;;;;;;;21.01;46.57;100665.09;5066147;28;20020;-54
2022/05/04 05:26:59;;;;;;;4.95;0.60;;;;;;;21.01;46.31;100665.09;5065473;28;20040;-55
2022/05/04 05:29:24;;;;;;;1.13;0.32;;;;;;;21.02;46.68;100672.03;5065178;28;20145;-53
2022/05/04 05:31:50;;;;;;;1.67;0.32;;;;;;;21.03;46.41;100676.31;5064503;28;20081;-55
2022/05/04 05:34:15;;;;;;;1.67;0.40;;;;;;;21.04;46.67;100670.00;5065126;28;20020;-56
2022/05/04 05:36:40;;;;;;;1.95;0.50;;;;;;;21.04;46.36;100668.16;5064660;28;20032;-53
2022/05/04 05:39:06;;;;;;;2.05;0.70;;;;;;;21.05;46.50;100679.56;5065971;28;20364;-52
2022/05/04 05:41:31;;;;;;;1.63;0.47;;;;;;;21.05;46.44;100690.16;5066874;28;20028;-56
2022/05/04 05:43:57;;;;;;;2.08;0.40;;;;;;;21.05;46.54;100690.97;5066473;28;20040;-55
2022/05/04 05:46:22;;;;;;;2.05;0.70;;;;;;;21.05;46.13;100684.88;5065867;28;20062;-52
2022/05/04 05:48:48;;;;;;;2.08;0.52;;;;;;;21.04;46.69;100684.06;5061683;28;20044;-54
2022/05/04 05:51:13;;;;;;;3.90;0.55;;;;;;;21.04;46.92;100692.00;5065400;28;20173;-50
2022/05/04 05:53:39;;;;;;;2.42;0.60;;;;;;;21.06;47.60;100691.78;5066707;28;20427;-53
2022/05/04 05:56:05;;;;;;;1.73;0.60;;;;;;;21.08;48.02;100692.41;5067520;28;20056;-48
2022/05/04 05:58:30;;;;;;;2.13;0.90;;;;;;;21.09;48.02;100694.03;5065689;28;20386;-57
2022/05/04 06:00:56;;;;;;;3.20;0.60;;;;;;;21.08;48.17;100695.06;5065965;28;20024;-53
2022/05/04 06:03:22;;;;;;;2.08;0.45;;;;;;;21.08;48.24;100698.50;5067488;28;20248;-54
2022/05/04 06:05:48;;;;;;;3.97;0.65;;;;;;;21.04;48.47;100696.47;5065714;28;20032;-53
2022/05/04 06:08:13;;;;;;;2.72;0.70;;;;;;;21.05;48.91;100700.75;5065670;28;20040;-50
2022/05/04 06:10:39;;;;;;;2.22;0.50;;;;;;;21.04;48.50;100707.91;5065746;28;20031;-55
2022/05/04 06:13:06;;;;;;;5.65;0.40;;;;;;;21.05;48.54;100703.41;5066766;28;20036;-49
2022/05/04 06:15:32;;;;;;;5.78;0.60;;;;;;;21.03;48.35;100703.63;5065150;28;20040;-52
2022/05/04 06:17:57;;;;;;;3.90;0.40;;;;;;;21.04;48.43;100701.78;5067024;28;20048;-50
2022/05/04 06:20:23;;;;;;;1.83;0.63;;;;;;;21.04;48.56;100699.13;5065611;28;20460;-55
2022/05/04 06:22:49;;;;;;;4.18;0.35;;;;;;;21.04;48.58;100699.13;5067013;28;20474;-51
2022/05/04 06:25:15;;;;;;;3.10;0.63;;;;;;;21.06;48.87;100705.03;5055698;28;20248;-53
2022/05/04 06:27:40;;;;;;;1.55;0.50;;;;;;;21.05;48.53;100708.72;5064985;28;20134;-55
2022/05/04 06:35:34;;;;;;;2.30;0.50;;;;;;;21.03;48.25;100705.44;5066338;28;20075;-56
2022/05/04 06:38:00;;;;;;;1.00;0.30;;;;;;;21.04;48.52;100709.72;5065019;28;20056;-55
2022/05/04 06:40:25;;;;;;;1.83;0.43;;;;;;;21.03;48.07;100708.91;5064500;28;20033;-54
2022/05/04 06:42:51;;;;;;;3.13;0.40;;;;;;;21.04;48.15;100709.72;5064968;28;20432;-57
2022/05/04 06:45:17;;;;;;;1.95;0.40;;;;;;;21.04;47.92;100709.72;5065951;28;20040;-53
2022/05/04 06:47:42;;;;;;;1.63;0.40;;;;;;;21.04;47.91;100717.69;5064705;28;20736;-54
2022/05/04 06:50:10;;;;;;;0.93;0.40;;;;;;;21.04;48.33;100715.03;5064729;28;20235;-54
2022/05/04 06:52:37;;;;;;;1.80;0.40;;;;;;;21.03;48.45;100718.69;5065763;28;20078;-56
2022/05/04 06:55:04;;;;;;;1.52;0.40;;;;;;;21.01;48.52;100712.78;5049663;28;20502;-50
2022/05/04 06:57:30;;;;;;;1.00;0.40;;;;;;;21.00;48.37;100719.91;5065431;28;20147;-49
2022/05/04 06:59:57;;;;;;;1.83;0.50;;;;;;;21.00;47.75;100719.09;5064896;28;20154;-50
2022/05/04 07:02:23;;;;;;;4.35;0.93;;;;;;;20.98;47.63;100723.78;5065003;28;20119;-48
2022/05/04 07:04:49;;;;;;;18.65;1.42;;;;;;;20.97;47.13;100724.81;5063873;28;20536;-51
2022/05/04 07:07:14;;;;;;;12.10;0.90;;;;;;;20.96;47.00;100724.00;5065604;28;20044;-50
2022/05/04 07:09:40;;;;;;;5.88;0.60;;;;;;;20.94;46.91;100725.22;5064818;28;20032;-56
2022/05/04 07:12:06;;;;;;;3.22;0.50;;;;;;;20.95;46.70;100721.56;5066132;28;20056;-53
2022/05/04 07:14:31;;;;;;;5.68;0.70;;;;;;;20.97;46.87;100724.81;5064622;28;20395;-54
2022/05/04 07:16:57;;;;;;;4.22;0.60;;;;;;;20.97;47.11;100720.34;5063178;28;20036;-54
2022/05/04 07:19:22;;;;;;;5.60;0.57;;;;;;;20.99;46.59;100722.78;5061334;28;20024;-52
2022/05/04 07:21:47;;;;;;;4.53;0.57;;;;;;;21.01;46.50;100721.53;5064064;28;20043;-59
2022/05/04 07:24:13;;;;;;;4.63;1.45;;;;;;;21.03;46.32;100724.00;5062957;28;20552;-58
2022/05/04 07:26:40;;;;;;;1.88;0.57;;;;;;;21.03;46.39;100719.50;5063406;28;20211;-52
2022/05/04 07:29:06;;;;;;;3.70;0.50;;;;;;;21.03;46.24;100735.41;5065870;28;20491;-61
2022/05/04 07:31:31;;;;;;;3.70;0.50;;;;;;;21.03;46.06;100732.75;5063008;28;20040;-54
2022/05/04 07:33:57;;;;;;;4.00;0.47;;;;;;;21.05;45.87;100729.91;5062297;28;20025;-52
2022/05/04 07:36:22;;;;;;;2.15;0.50;;;;;;;21.05;45.61;100733.34;5065756;28;20191;-51
2022/05/04 07:38:48;;;;;;;2.42;0.50;;;;;;;21.05;45.60;100728.06;5064065;28;20114;-56
2022/05/04 07:43:59;;;;;;;2.08;0.47;;;;;;;21.05;45.83;100729.91;5063146;28;20044;-58
2022/05/04 07:46:27;;;;;;;1.10;0.50;;;;;;;21.04;45.62;100733.56;5060760;28;20078;-48
2022/05/04 07:48:53;;;;;;;2.22;0.73;;;;;;;21.04;45.53;100733.56;5060636;28;20024;-63
2022/05/04 07:51:18;;;;;;;1.58;0.40;;;;;;;21.04;45.81;100733.56;5058893;28;20029;-56
2022/05/04 07:53:44;;;;;;;2.55;0.60;;;;;;;21.02;45.47;100730.31;5063646;28;20042;-56
2022/05/04 07:56:09;;;;;;;6.35;1.10;;;;;;;20.99;45.34;100728.06;5065854;28;20051;-49
2022/05/04 07:58:35;;;;;;;20.15;2.42;;;;;;;20.98;45.33;100727.25;5061464;28;20068;-53
2022/05/04 08:06:28;;;;;;;20.55;2.08;;;;;;;20.94;44.86;100727.88;5063578;28;20047;-52
2022/05/04 08:08:54;;;;;;;10.40;1.52;;;;;;;20.95;44.80;100726.84;5064322;28;20241;-52
2022/05/04 08:11:19;;;;;;;8.75;1.50;;;;;;;20.95;44.82;100727.66;5068479;28;20597;-59
2022/05/04 08:13:45;;;;;;;6.22;1.15;;;;;;;20.95;45.06;100726.84;5049485;28;20044;-59
2022/05/04 08:16:11;;;;;;;147.18;8.70;;;;;;;20.95;46.00;100729.50;5068740;28;20127;-58
2022/05/04 08:18:40;;;;;;;26.88;1.48;;;;;;;20.93;46.08;100734.19;5066716;28;20494;-56
2022/05/04 08:21:09;;;;;;;15.20;1.80;;;;;;;20.94;46.01;100733.16;5068957;28;20607;-61
2022/05/04 08:23:35;;;;;;;6.00;0.98;;;;;;;20.94;46.86;100733.97;5067533;28;20464;-58
2022/05/04 08:26:01;;;;;;;5.80;1.27;;;;;;;20.96;47.26;100739.06;5068417;28;20028;-57
2022/05/04 08:28:27;;;;;;;6.38;0.88;;;;;;;20.96;47.29;100739.88;5067938;28;20055;-52
2022/05/04 08:30:53;;;;;;;11.05;1.10;;;;;;;20.97;46.89;100735.41;5067333;28;20029;-55
2022/05/04 08:33:19;;;;;;;14.48;1.20;;;;;;;20.97;47.14;100735.41;5069362;28;20099;-56
2022/05/04 08:35:45;;;;;;;7.03;1.38;;;;;;;20.98;47.07;100737.03;5065562;28;20113;-54
2022/05/04 08:38:12;;;;;;;9.38;1.08;;;;;;;20.97;47.08;100738.88;5068503;28;20064;-56
2022/05/04 08:40:38;;;;;;;6.45;0.82;;;;;;;20.98;46.89;100739.69;5065560;28;20040;-56
2022/05/04 08:43:08;;;;;;;7.35;0.80;;;;;;;20.99;46.56;100738.66;5048603;28;20097;-54
2022/05/04 08:45:38;;;;;;;2.58;0.60;;;;;;;20.98;46.34;100744.97;5064299;28;20450;-53
2022/05/04 08:48:05;;;;;;;3.70;0.77;;;;;;;20.97;46.54;100735.41;5068589;28;20025;-56
2022/05/04 08:50:33;;;;;;;6.03;0.60;;;;;;;20.98;46.30;100739.69;5064851;28;20045;-53
2022/05/04 08:53:01;;;;;;;5.00;0.50;;;;;;;20.96;46.07;100737.25;5058347;28;20463;-57
2022/05/04 08:55:26;;;;;;;4.68;0.75;;;;;;;20.98;46.25;100737.03;5066429;28;20024;-52
2022/05/04 08:57:55;;;;;;;4.05;0.77;;;;;;;20.94;44.47;100739.28;5066642;28;20039;-52
2022/05/04 09:00:21;;;;;;;2.90;0.73;;;;;;;20.93;43.39;100740.31;5067750;28;20112;-55
2022/05/04 09:02:47;;;;;;;2.05;0.50;;;;;;;20.93;43.24;100742.13;5065329;28;20032;-49
2022/05/04 09:05:18;;;;;;;3.80;0.55;;;;;;;20.92;42.98;100737.84;5063497;28;20387;-53
2022/05/04 09:07:46;;;;;;;3.65;0.60;;;;;;;20.92;42.74;100737.84;5057607;28;20033;-50
2022/05/04 09:10:16;;;;;;;3.92;0.57;;;;;;;20.92;43.04;100738.66;5067473;28;20176;-50
2022/05/04 09:12:45;;;;;;;3.15;0.60;;;;;;;20.95;43.35;100737.44;5066283;28;20421;-55
2022/05/04 09:15:25;;;;;;;1.08;0.40;;;;;;;20.94;43.20;100735.81;5064971;28;20036;-52
2022/05/04 09:18:02;;;;;;;2.28;0.65;;;;;;;20.95;43.50;100738.25;5062918;28;20151;-53
2022/05/04 09:20:47;;;;;;;2.78;0.52;;;;;;;20.96;43.62;100734.59;5064551;28;20109;-56
2022/05/04 09:23:24;;;;;;;1.90;0.70;;;;;;;20.96;43.79;100741.72;5059664;28;20032;-51
2022/05/04 09:25:58;;;;;;;1.88;0.45;;;;;;;20.98;43.39;100734.38;5066656;28;20295;-54
2022/05/04 09:28:26;;;;;;;2.97;0.60;;;;;;;21.01;43.27;100733.97;5065830;28;20036;-55
2022/05/04 09:30:56;;;;;;;2.10;0.80;;;;;;;21.01;43.12;100737.44;5067457;28;20032;-54
2022/05/04 09:33:26;;;;;;;1.23;0.68;;;;;;;21.03;43.02;100739.88;5067003;28;20958;-52
2022/05/04 09:35:53;;;;;;;1.10;0.60;;;;;;;21.04;42.80;100733.56;5064503;28;20043;-52
2022/05/04 09:46:43;;;;;;;1.42;0.70;;;;;;;21.03;43.08;100732.75;5065020;28;20429;-52
2022/05/04 09:49:11;;;;;;;0.70;0.40;;;;;;;21.03;43.11;100730.09;5065678;28;20040;-52
2022/05/04 09:51:38;;;;;;;2.65;0.45;;;;;;;21.03;43.03;100731.94;5064931;28;20373;-55
2022/05/04 09:54:32;;;;;;;1.30;0.50;;;;;;;20.98;43.30;100734.38;5064925;28;20044;-54
2022/05/04 09:57:01;;;;;;;2.05;0.50;;;;;;;20.99;43.53;100728.88;5030582;28;20094;-55
2022/05/04 09:59:29;;;;;;;0.57;0.47;;;;;;;21.01;43.28;100732.16;5064180;28;20043;-54
2022/05/04 10:01:55;;;;;;;3.30;1.13;;;;;;;20.99;43.37;100728.88;5065626;28;20032;-53
2022/05/04 10:04:23;;;;;;;3.90;0.82;;;;;;;21.04;43.42;100733.56;5064805;28;20024;-55
2022/05/04 10:06:52;;;;;;;1.40;0.50;;;;;;;21.02;43.56;100727.66;5065423;28;20136;-55
2022/05/04 10:09:18;;;;;;;1.50;0.50;;;;;;;21.01;43.58;100729.50;5063804;28;20089;-55
2022/05/04 10:11:44;;;;;;;1.05;0.50;;;;;;;21.00;43.59;100725.22;5066967;28;20185;-52
2022/05/04 10:14:13;;;;;;;1.92;0.70;;;;;;;21.01;43.57;100720.72;5067078;28;20107;-52
2022/05/04 10:17:17;;;;;;;1.52;0.60;;;;;;;20.98;43.64;100719.31;5067451;28;20032;-54
2022/05/04 10:19:43;;;;;;;0.98;0.50;;;;;;;20.99;43.77;100722.78;5052244;28;20060;-54
2022/05/04 10:22:15;;;;;;;1.98;0.80;;;;;;;20.99;43.82;100717.47;5063455;28;20411;-56
2022/05/04 10:24:42;;;;;;;4.45;0.70;;;;;;;20.98;43.82;100721.16;5061599;28;20483;-55
2022/05/04 10:27:21;;;;;;;1.58;0.70;;;;;;;20.97;43.41;100708.91;5048096;28;20119;-56
2022/05/04 10:32:44;;;;;;;2.78;1.15;;;;;;;20.97;43.93;100711.56;5067200;28;20043;-56
2022/05/04 10:35:20;;;;;;;1.20;0.50;;;;;;;20.99;43.68;100709.53;5066451;28;20025;-54
2022/05/04 10:38:04;;;;;;;;;;;;;;;20.92;43.54;100700.78;5065500;28;20033;-57
2022/05/04 10:40:35;;;;;;;1.52;0.60;;;;;;;20.96;43.91;100709.94;5055621;28;20282;-55
2022/05/04 10:43:05;;;;;;;4.10;0.63;;;;;;;20.99;43.41;100712.19;5053296;28;20029;-59
2022/05/04 10:45:33;;;;;;;1.30;0.80;;;;;;;21.02;43.67;100709.94;5060004;28;20119;-57
2022/05/04 10:48:18;;;;;;;3.38;0.73;;;;;;;21.02;43.44;100701.16;5066799;28;20048;-54
2022/05/04 10:50:55;;;;;;;4.60;0.80;;;;;;;21.03;43.08;100703.63;5066000;28;20135;-61
2022/05/04 10:53:23;;;;;;;4.40;0.50;;;;;;;21.04;43.06;100704.44;5064470;28;20029;-60
2022/05/04 10:56:07;;;;;;;3.17;0.65;;;;;;;21.02;41.81;100707.28;5065147;28;20428;-59
2022/05/04 10:58:47;;;;;;;2.33;0.60;;;;;;;21.01;42.14;100704.84;5064829;28;20040;-59
2022/05/04 11:01:15;;;;;;;2.15;0.60;;;;;;;21.04;42.46;100704.44;5064817;28;20055;-60
2022/05/04 11:04:08;;;;;;;1.30;0.55;;;;;;;21.03;42.09;100700.16;5065983;28;20119;-59
2022/05/04 11:06:37;;;;;;;2.08;0.50;;;;;;;21.04;41.96;100705.25;5063718;28;20499;-61
2022/05/04 11:09:10;;;;;;;0.75;0.40;;;;;;;21.05;42.08;100700.75;5065239;28;20036;-60
2022/05/04 11:11:37;;;;;;;1.95;0.32;;;;;;;21.07;41.88;100698.72;5064714;28;20474;-61
2022/05/04 11:14:04;;;;;;;1.10;0.57;;;;;;;21.06;41.72;100692.59;5064572;28;20519;-60
2022/05/04 11:16:30;;;;;;;3.88;0.40;;;;;;;21.08;41.38;100697.69;5065928;28;20448;-61
2022/05/04 11:18:59;;;;;;;3.47;0.40;;;;;;;21.08;41.48;100690.56;5064308;28;20036;-60
2022/05/04 11:21:27;;;;;;;1.00;0.50;;;;;;;21.10;41.50;100699.13;5064029;28;20456;-59
2022/05/04 11:23:56;;;;;;;1.33;0.40;;;;;;;21.11;41.58;100689.34;5060982;28;20097;-61
2022/05/04 11:26:27;;;;;;;3.08;0.60;;;;;;;21.11;41.48;100689.34;5062176;28;20102;-59
2022/05/04 11:28:53;;;;;;;3.72;0.50;;;;;;;21.13;40.92;100684.66;5065057;28;20056;-51
2022/05/04 11:31:20;;;;;;;2.78;0.52;;;;;;;21.13;41.23;100674.88;5066841;28;20024;-54
2022/05/04 11:33:48;;;;;;;6.00;0.82;;;;;;;21.15;42.71;100680.78;5067447;28;20029;-54
2022/05/04 11:36:16;;;;;;;3.75;0.90;;;;;;;21.39;46.47;100681.91;5065433;28;20028;-52
2022/05/04 11:38:44;;;;;;;12.07;3.28;;;;;;;21.69;48.87;100682.22;5063753;28;20028;-56
2022/05/04 11:41:11;;;;;;;5.47;1.63;;;;;;;21.68;47.47;100677.13;5063833;28;20386;-47
2022/05/04 11:43:37;;;;;;;5.10;1.55;;;;;;;21.62;46.76;100686.72;5064434;28;20024;-48
2022/05/04 11:46:06;;;;;;;3.47;0.93;;;;;;;21.57;46.49;100677.78;5069682;28;20040;-46
2022/05/04 11:48:37;;;;;;;5.00;1.13;;;;;;;21.52;45.97;100678.41;5069511;28;20140;-43
2022/05/04 11:51:03;;;;;;;4.10;0.80;;;;;;;21.49;45.78;100671.69;5058128;28;20171;-52
2022/05/04 11:53:29;;;;;;;11.00;1.20;;;;;;;21.46;45.95;100672.09;5068417;28;20028;-51
2022/05/04 11:56:00;;;;;;;1.70;0.73;;;;;;;21.45;45.92;100667.84;5070059;28;20486;-52
2022/05/04 11:58:29;;;;;;;4.20;0.95;;;;;;;21.47;46.23;100667.63;5066748;28;20037;-48
2022/05/04 12:00:55;;;;;;;4.97;0.90;;;;;;;21.48;46.49;100674.56;5060505;28;20131;-45